sensor_id;sensor_type;location;lat;lon;timestamp;P1;durP1;ratioP1;P2;durP2;ratioP2
5805;SDS011;2929;50.810;8.342;2022-09-01T00:00:43;7.30;;;2.50;;
5805;SDS011;2929;50.810;8.342;2022-09-01T00:03:13;3.10;;;2.40;;
5805;SDS011;2929;50.810;8.342;2022-09-01T00:05:41;3.10;;;2.67;;
5805;SDS011;2929;50.810;8.342;2022-09-01T00:08:08;2.40;;;2.20;;
5805;SDS011;2929;50.810;8.342;2022-09-01T00:10:35;4.03;;;2.50;;
5805;SDS011;2929;50.810;8.342;2022-09-01T00:13:03;3.13;;;2.50;;
5805;SDS011;2929;50.810;8.342;2022-09-01T00:15:32;4.53;;;2.53;;
5805;SDS011;2929;50.810;8.342;2022-09-01T00:18:00;4.90;;;2.53;;
5805;SDS011;2929;50.810;8.342;2022-09-01T00:20:27;8.93;;;2.80;;
5805;SDS011;2929;50.810;8.342;2022-09-01T00:22:54;3.73;;;2.87;;
5805;SDS011;2929;50.810;8.342;2022-09-01T00:25:22;3.00;;;2.70;;
5805;SDS011;2929;50.810;8.342;2022-09-01T00:27:49;3.93;;;2.40;;
5805;SDS011;2929;50.810;8.342;2022-09-01T00:30:20;3.60;;;2.40;;
5805;SDS011;2929;50.810;8.342;2022-09-01T00:32:48;2.73;;;2.53;;
5805;SDS011;2929;50.810;8.342;2022-09-01T00:35:17;3.33;;;2.60;;
5805;SDS011;2929;50.810;8.342;2022-09-01T00:37:44;2.93;;;2.63;;
5805;SDS011;2929;50.810;8.342;2022-09-01T00:40:12;4.00;;;2.90;;
5805;SDS011;2929;50.810;8.342;2022-09-01T00:42:40;3.63;;;2.63;;
5805;SDS011;2929;50.810;8.342;2022-09-01T00:45:09;4.53;;;3.53;;
5805;SDS011;2929;50.810;8.342;2022-09-01T00:47:36;3.00;;;2.67;;
5805;SDS011;2929;50.810;8.342;2022-09-01T00:50:06;4.70;;;2.80;;
5805;SDS011;2929;50.810;8.342;2022-09-01T00:52:36;6.40;;;2.30;;
5805;SDS011;2929;50.810;8.342;2022-09-01T00:55:12;6.70;;;2.73;;
5805;SDS011;2929;50.810;8.342;2022-09-01T00:57:43;8.67;;;2.80;;
5805;SDS011;2929;50.810;8.342;2022-09-01T01:00:11;6.07;;;2.93;;
5805;SDS011;2929;50.810;8.342;2022-09-01T01:02:43;3.80;;;2.47;;
5805;SDS011;2929;50.810;8.342;2022-09-01T01:05:12;3.97;;;2.70;;
5805;SDS011;2929;50.810;8.342;2022-09-01T01:07:39;4.27;;;2.87;;
5805;SDS011;2929;50.810;8.342;2022-09-01T01:10:09;3.70;;;2.83;;
5805;SDS011;2929;50.810;8.342;2022-09-01T01:12:37;3.30;;;2.97;;
5805;SDS011;2929;50.810;8.342;2022-09-01T01:15:07;3.10;;;2.40;;
5805;SDS011;2929;50.810;8.342;2022-09-01T01:17:36;3.40;;;3.10;;
5805;SDS011;2929;50.810;8.342;2022-09-01T01:20:04;4.53;;;2.83;;
5805;SDS011;2929;50.810;8.342;2022-09-01T01:22:54;4.73;;;2.90;;
5805;SDS011;2929;50.810;8.342;2022-09-01T01:25:34;4.40;;;2.40;;
5805;SDS011;2929;50.810;8.342;2022-09-01T01:28:07;3.20;;;2.87;;
5805;SDS011;2929;50.810;8.342;2022-09-01T01:30:37;2.70;;;2.30;;
5805;SDS011;2929;50.810;8.342;2022-09-01T01:33:05;9.50;;;2.67;;
5805;SDS011;2929;50.810;8.342;2022-09-01T01:35:33;3.33;;;2.50;;
5805;SDS011;2929;50.810;8.342;2022-09-01T01:38:01;6.60;;;3.00;;
5805;SDS011;2929;50.810;8.342;2022-09-01T01:40:33;2.93;;;2.37;;
5805;SDS011;2929;50.810;8.342;2022-09-01T01:43:01;3.63;;;2.60;;
5805;SDS011;2929;50.810;8.342;2022-09-01T01:45:29;3.73;;;2.80;;
5805;SDS011;2929;50.810;8.342;2022-09-01T01:47:56;3.47;;;2.70;;
5805;SDS011;2929;50.810;8.342;2022-09-01T01:50:26;2.90;;;2.43;;
5805;SDS011;2929;50.810;8.342;2022-09-01T01:52:59;6.30;;;2.17;;
5805;SDS011;2929;50.810;8.342;2022-09-01T01:55:28;3.73;;;2.67;;
5805;SDS011;2929;50.810;8.342;2022-09-01T01:57:58;6.93;;;2.90;;
5805;SDS011;2929;50.810;8.342;2022-09-01T02:00:28;3.90;;;2.70;;
5805;SDS011;2929;50.810;8.342;2022-09-01T02:02:58;2.67;;;2.47;;
5805;SDS011;2929;50.810;8.342;2022-09-01T02:05:26;4.00;;;2.53;;
5805;SDS011;2929;50.810;8.342;2022-09-01T02:07:57;4.97;;;2.47;;
5805;SDS011;2929;50.810;8.342;2022-09-01T02:10:28;2.93;;;2.60;;
5805;SDS011;2929;50.810;8.342;2022-09-01T02:12:59;4.40;;;2.70;;
5805;SDS011;2929;50.810;8.342;2022-09-01T02:15:30;10.93;;;2.50;;
5805;SDS011;2929;50.810;8.342;2022-09-01T02:18:07;3.47;;;3.07;;
5805;SDS011;2929;50.810;8.342;2022-09-01T02:23:57;7.00;;;3.30;;
5805;SDS011;2929;50.810;8.342;2022-09-01T02:26:29;3.20;;;2.90;;
5805;SDS011;2929;50.810;8.342;2022-09-01T02:29:00;3.10;;;2.43;;
5805;SDS011;2929;50.810;8.342;2022-09-01T02:31:30;3.33;;;2.80;;
5805;SDS011;2929;50.810;8.342;2022-09-01T02:34:00;3.43;;;2.53;;
5805;SDS011;2929;50.810;8.342;2022-09-01T02:36:29;6.10;;;2.70;;
5805;SDS011;2929;50.810;8.342;2022-09-01T02:38:59;3.03;;;2.20;;
5805;SDS011;2929;50.810;8.342;2022-09-01T02:41:26;4.20;;;2.87;;
5805;SDS011;2929;50.810;8.342;2022-09-01T02:43:55;3.87;;;2.60;;
5805;SDS011;2929;50.810;8.342;2022-09-01T02:46:27;4.37;;;2.70;;
5805;SDS011;2929;50.810;8.342;2022-09-01T02:48:55;7.40;;;2.90;;
5805;SDS011;2929;50.810;8.342;2022-09-01T02:51:24;2.53;;;2.33;;
5805;SDS011;2929;50.810;8.342;2022-09-01T02:53:51;3.00;;;2.70;;
5805;SDS011;2929;50.810;8.342;2022-09-01T02:56:20;4.03;;;2.40;;
5805;SDS011;2929;50.810;8.342;2022-09-01T02:58:52;4.53;;;2.90;;
5805;SDS011;2929;50.810;8.342;2022-09-01T03:01:22;3.43;;;2.53;;
5805;SDS011;2929;50.810;8.342;2022-09-01T03:03:54;4.03;;;2.30;;
5805;SDS011;2929;50.810;8.342;2022-09-01T03:06:23;3.10;;;2.80;;
5805;SDS011;2929;50.810;8.342;2022-09-01T03:08:51;5.43;;;2.50;;
5805;SDS011;2929;50.810;8.342;2022-09-01T03:11:20;3.40;;;3.10;;
5805;SDS011;2929;50.810;8.342;2022-09-01T03:13:49;4.40;;;2.70;;
5805;SDS011;2929;50.810;8.342;2022-09-01T03:16:17;4.13;;;2.57;;
5805;SDS011;2929;50.810;8.342;2022-09-01T03:18:47;3.90;;;2.40;;
5805;SDS011;2929;50.810;8.342;2022-09-01T03:21:17;2.67;;;2.40;;
5805;SDS011;2929;50.810;8.342;2022-09-01T03:23:46;2.60;;;2.33;;
5805;SDS011;2929;50.810;8.342;2022-09-01T03:26:14;3.27;;;2.77;;
5805;SDS011;2929;50.810;8.342;2022-09-01T03:28:43;4.67;;;2.70;;
5805;SDS011;2929;50.810;8.342;2022-09-01T03:31:11;3.57;;;2.70;;
5805;SDS011;2929;50.810;8.342;2022-09-01T03:33:38;2.83;;;2.63;;
5805;SDS011;2929;50.810;8.342;2022-09-01T03:36:11;5.27;;;2.57;;
5805;SDS011;2929;50.810;8.342;2022-09-01T03:38:45;4.17;;;2.30;;
5805;SDS011;2929;50.810;8.342;2022-09-01T03:41:14;4.33;;;2.50;;
5805;SDS011;2929;50.810;8.342;2022-09-01T03:43:43;5.50;;;2.57;;
5805;SDS011;2929;50.810;8.342;2022-09-01T03:46:11;2.73;;;2.53;;
5805;SDS011;2929;50.810;8.342;2022-09-01T03:48:44;4.13;;;2.83;;
5805;SDS011;2929;50.810;8.342;2022-09-01T03:51:13;7.47;;;2.70;;
5805;SDS011;2929;50.810;8.342;2022-09-01T03:53:41;7.00;;;2.63;;
5805;SDS011;2929;50.810;8.342;2022-09-01T03:56:10;7.60;;;2.60;;
5805;SDS011;2929;50.810;8.342;2022-09-01T03:58:39;5.77;;;2.83;;
5805;SDS011;2929;50.810;8.342;2022-09-01T04:01:08;2.87;;;2.60;;
5805;SDS011;2929;50.810;8.342;2022-09-01T04:03:37;3.63;;;2.47;;
5805;SDS011;2929;50.810;8.342;2022-09-01T04:06:07;8.10;;;2.83;;
5805;SDS011;2929;50.810;8.342;2022-09-01T04:08:35;6.67;;;3.00;;
5805;SDS011;2929;50.810;8.342;2022-09-01T04:11:03;4.20;;;2.40;;
5805;SDS011;2929;50.810;8.342;2022-09-01T04:13:39;3.13;;;2.50;;
5805;SDS011;2929;50.810;8.342;2022-09-01T04:16:14;4.00;;;2.40;;
5805;SDS011;2929;50.810;8.342;2022-09-01T04:19:05;7.53;;;2.60;;
5805;SDS011;2929;50.810;8.342;2022-09-01T04:21:41;4.10;;;2.70;;
5805;SDS011;2929;50.810;8.342;2022-09-01T04:24:09;4.47;;;2.87;;
5805;SDS011;2929;50.810;8.342;2022-09-01T04:26:39;6.60;;;2.67;;
5805;SDS011;2929;50.810;8.342;2022-09-01T04:29:08;7.73;;;2.63;;
5805;SDS011;2929;50.810;8.342;2022-09-01T04:31:36;4.80;;;2.77;;
5805;SDS011;2929;50.810;8.342;2022-09-01T04:34:05;4.40;;;2.80;;
5805;SDS011;2929;50.810;8.342;2022-09-01T04:36:40;3.77;;;2.47;;
5805;SDS011;2929;50.810;8.342;2022-09-01T04:39:09;8.43;;;3.07;;
5805;SDS011;2929;50.810;8.342;2022-09-01T04:41:38;7.33;;;3.10;;
5805;SDS011;2929;50.810;8.342;2022-09-01T04:44:08;7.40;;;2.80;;
5805;SDS011;2929;50.810;8.342;2022-09-01T04:46:38;3.10;;;2.80;;
5805;SDS011;2929;50.810;8.342;2022-09-01T04:49:11;4.47;;;2.73;;
5805;SDS011;2929;50.810;8.342;2022-09-01T04:51:44;2.47;;;2.27;;
5805;SDS011;2929;50.810;8.342;2022-09-01T04:54:12;5.50;;;2.90;;
5805;SDS011;2929;50.810;8.342;2022-09-01T04:56:44;3.83;;;2.37;;
5805;SDS011;2929;50.810;8.342;2022-09-01T04:59:17;2.80;;;2.43;;
5805;SDS011;2929;50.810;8.342;2022-09-01T05:01:50;4.40;;;3.20;;
5805;SDS011;2929;50.810;8.342;2022-09-01T05:04:20;8.77;;;2.90;;
5805;SDS011;2929;50.810;8.342;2022-09-01T05:06:49;6.70;;;2.90;;
5805;SDS011;2929;50.810;8.342;2022-09-01T05:09:19;8.53;;;2.30;;
5805;SDS011;2929;50.810;8.342;2022-09-01T05:12:12;3.77;;;2.50;;
5805;SDS011;2929;50.810;8.342;2022-09-01T05:14:45;8.80;;;3.67;;
5805;SDS011;2929;50.810;8.342;2022-09-01T05:17:15;3.17;;;2.80;;
5805;SDS011;2929;50.810;8.342;2022-09-01T05:19:44;5.77;;;2.80;;
5805;SDS011;2929;50.810;8.342;2022-09-01T05:22:14;5.40;;;2.90;;
5805;SDS011;2929;50.810;8.342;2022-09-01T05:24:54;3.50;;;3.00;;
5805;SDS011;2929;50.810;8.342;2022-09-01T05:27:24;4.13;;;3.03;;
5805;SDS011;2929;50.810;8.342;2022-09-01T05:29:55;9.90;;;2.60;;
5805;SDS011;2929;50.810;8.342;2022-09-01T05:32:24;5.33;;;3.23;;
5805;SDS011;2929;50.810;8.342;2022-09-01T05:34:52;7.30;;;2.60;;
5805;SDS011;2929;50.810;8.342;2022-09-01T05:37:19;4.23;;;2.60;;
5805;SDS011;2929;50.810;8.342;2022-09-01T05:39:47;4.50;;;2.60;;
5805;SDS011;2929;50.810;8.342;2022-09-01T05:42:14;6.27;;;2.47;;
5805;SDS011;2929;50.810;8.342;2022-09-01T05:44:42;7.63;;;3.17;;
5805;SDS011;2929;50.810;8.342;2022-09-01T05:47:11;7.40;;;3.20;;
5805;SDS011;2929;50.810;8.342;2022-09-01T05:49:39;4.87;;;2.20;;
5805;SDS011;2929;50.810;8.342;2022-09-01T05:52:07;6.43;;;3.00;;
5805;SDS011;2929;50.810;8.342;2022-09-01T05:54:36;6.87;;;3.10;;
5805;SDS011;2929;50.810;8.342;2022-09-01T05:57:03;4.10;;;2.77;;
5805;SDS011;2929;50.810;8.342;2022-09-01T05:59:32;5.00;;;3.17;;
5805;SDS011;2929;50.810;8.342;2022-09-01T06:02:03;6.97;;;2.63;;
5805;SDS011;2929;50.810;8.342;2022-09-01T06:04:35;5.80;;;3.30;;
5805;SDS011;2929;50.810;8.342;2022-09-01T06:07:10;7.60;;;3.30;;
5805;SDS011;2929;50.810;8.342;2022-09-01T06:09:42;5.17;;;3.27;;
5805;SDS011;2929;50.810;8.342;2022-09-01T06:12:13;9.93;;;3.20;;
5805;SDS011;2929;50.810;8.342;2022-09-01T06:14:46;4.33;;;2.70;;
5805;SDS011;2929;50.810;8.342;2022-09-01T06:17:16;5.40;;;2.70;;
5805;SDS011;2929;50.810;8.342;2022-09-01T06:19:48;5.67;;;3.23;;
5805;SDS011;2929;50.810;8.342;2022-09-01T06:22:16;5.57;;;2.20;;
5805;SDS011;2929;50.810;8.342;2022-09-01T06:24:45;7.40;;;1.97;;
5805;SDS011;2929;50.810;8.342;2022-09-01T06:27:13;5.00;;;2.40;;
5805;SDS011;2929;50.810;8.342;2022-09-01T06:29:42;5.97;;;2.10;;
5805;SDS011;2929;50.810;8.342;2022-09-01T06:32:12;2.20;;;2.00;;
5805;SDS011;2929;50.810;8.342;2022-09-01T06:34:40;4.70;;;2.00;;
5805;SDS011;2929;50.810;8.342;2022-09-01T06:37:10;3.90;;;1.83;;
5805;SDS011;2929;50.810;8.342;2022-09-01T06:39:39;2.67;;;1.80;;
5805;SDS011;2929;50.810;8.342;2022-09-01T06:42:08;3.53;;;2.90;;
5805;SDS011;2929;50.810;8.342;2022-09-01T06:44:45;2.90;;;1.80;;
5805;SDS011;2929;50.810;8.342;2022-09-01T06:47:13;3.53;;;1.90;;
5805;SDS011;2929;50.810;8.342;2022-09-01T06:49:40;2.00;;;1.70;;
5805;SDS011;2929;50.810;8.342;2022-09-01T06:52:15;2.93;;;1.90;;
5805;SDS011;2929;50.810;8.342;2022-09-01T06:54:47;1.40;;;1.30;;
5805;SDS011;2929;50.810;8.342;2022-09-01T06:57:17;3.23;;;1.60;;
5805;SDS011;2929;50.810;8.342;2022-09-01T06:59:46;5.13;;;1.50;;
5805;SDS011;2929;50.810;8.342;2022-09-01T07:02:14;1.63;;;1.53;;
5805;SDS011;2929;50.810;8.342;2022-09-01T07:05:06;3.27;;;1.70;;
5805;SDS011;2929;50.810;8.342;2022-09-01T07:07:34;4.00;;;1.53;;
5805;SDS011;2929;50.810;8.342;2022-09-01T07:10:02;4.23;;;1.50;;
5805;SDS011;2929;50.810;8.342;2022-09-01T07:12:36;2.77;;;1.50;;
5805;SDS011;2929;50.810;8.342;2022-09-01T07:15:06;2.83;;;1.60;;
5805;SDS011;2929;50.810;8.342;2022-09-01T07:17:33;4.50;;;1.70;;
5805;SDS011;2929;50.810;8.342;2022-09-01T07:20:06;2.63;;;1.63;;
5805;SDS011;2929;50.810;8.342;2022-09-01T07:22:36;1.53;;;1.00;;
5805;SDS011;2929;50.810;8.342;2022-09-01T07:25:04;1.53;;;1.30;;
5805;SDS011;2929;50.810;8.342;2022-09-01T07:27:58;1.70;;;1.10;;
5805;SDS011;2929;50.810;8.342;2022-09-01T07:30:26;1.50;;;1.40;;
5805;SDS011;2929;50.810;8.342;2022-09-01T07:32:55;2.77;;;1.40;;
5805;SDS011;2929;50.810;8.342;2022-09-01T07:35:23;2.37;;;1.30;;
5805;SDS011;2929;50.810;8.342;2022-09-01T07:37:52;1.90;;;1.57;;
5805;SDS011;2929;50.810;8.342;2022-09-01T07:40:26;4.13;;;1.60;;
5805;SDS011;2929;50.810;8.342;2022-09-01T07:43:13;5.90;;;1.80;;
5805;SDS011;2929;50.810;8.342;2022-09-01T07:46:09;2.20;;;1.47;;
5805;SDS011;2929;50.810;8.342;2022-09-01T07:48:37;6.93;;;2.10;;
5805;SDS011;2929;50.810;8.342;2022-09-01T07:51:05;8.80;;;1.50;;
5805;SDS011;2929;50.810;8.342;2022-09-01T07:53:34;2.27;;;1.67;;
5805;SDS011;2929;50.810;8.342;2022-09-01T07:56:04;2.80;;;1.43;;
5805;SDS011;2929;50.810;8.342;2022-09-01T07:58:37;4.73;;;1.47;;
5805;SDS011;2929;50.810;8.342;2022-09-01T08:01:07;3.23;;;1.43;;
5805;SDS011;2929;50.810;8.342;2022-09-01T08:03:35;2.30;;;1.43;;
5805;SDS011;2929;50.810;8.342;2022-09-01T08:06:05;2.20;;;1.30;;
5805;SDS011;2929;50.810;8.342;2022-09-01T08:08:36;2.73;;;1.47;;
5805;SDS011;2929;50.810;8.342;2022-09-01T08:11:06;3.90;;;1.40;;
5805;SDS011;2929;50.810;8.342;2022-09-01T08:13:35;8.13;;;2.00;;
5805;SDS011;2929;50.810;8.342;2022-09-01T08:16:04;3.47;;;1.50;;
5805;SDS011;2929;50.810;8.342;2022-09-01T08:18:34;2.67;;;1.40;;
5805;SDS011;2929;50.810;8.342;2022-09-01T08:21:04;4.60;;;1.50;;
5805;SDS011;2929;50.810;8.342;2022-09-01T08:23:36;6.60;;;1.40;;
5805;SDS011;2929;50.810;8.342;2022-09-01T08:26:04;10.90;;;1.77;;
5805;SDS011;2929;50.810;8.342;2022-09-01T08:28:33;1.60;;;1.40;;
5805;SDS011;2929;50.810;8.342;2022-09-01T08:31:04;1.73;;;1.30;;
5805;SDS011;2929;50.810;8.342;2022-09-01T08:33:32;2.53;;;1.50;;
5805;SDS011;2929;50.810;8.342;2022-09-01T08:36:00;10.50;;;1.50;;
5805;SDS011;2929;50.810;8.342;2022-09-01T08:38:28;1.90;;;1.20;;
5805;SDS011;2929;50.810;8.342;2022-09-01T08:40:57;4.43;;;1.23;;
5805;SDS011;2929;50.810;8.342;2022-09-01T08:43:36;2.17;;;1.60;;
5805;SDS011;2929;50.810;8.342;2022-09-01T08:46:13;1.33;;;1.23;;
5805;SDS011;2929;50.810;8.342;2022-09-01T08:48:45;1.60;;;1.20;;
5805;SDS011;2929;50.810;8.342;2022-09-01T08:51:18;4.23;;;1.80;;
5805;SDS011;2929;50.810;8.342;2022-09-01T08:54:00;3.60;;;1.40;;
5805;SDS011;2929;50.810;8.342;2022-09-01T08:56:33;2.30;;;1.70;;
5805;SDS011;2929;50.810;8.342;2022-09-01T08:59:04;2.50;;;1.20;;
5805;SDS011;2929;50.810;8.342;2022-09-01T09:01:53;2.00;;;1.37;;
5805;SDS011;2929;50.810;8.342;2022-09-01T09:04:31;2.27;;;1.10;;
5805;SDS011;2929;50.810;8.342;2022-09-01T09:07:12;2.00;;;1.33;;
5805;SDS011;2929;50.810;8.342;2022-09-01T09:09:49;7.07;;;1.60;;
5805;SDS011;2929;50.810;8.342;2022-09-01T09:12:34;4.00;;;1.50;;
5805;SDS011;2929;50.810;8.342;2022-09-01T09:15:11;8.47;;;1.40;;
5805;SDS011;2929;50.810;8.342;2022-09-01T09:17:44;3.33;;;1.47;;
5805;SDS011;2929;50.810;8.342;2022-09-01T09:20:20;2.60;;;1.17;;
5805;SDS011;2929;50.810;8.342;2022-09-01T09:22:47;2.70;;;1.83;;
5805;SDS011;2929;50.810;8.342;2022-09-01T09:25:16;1.90;;;1.30;;
5805;SDS011;2929;50.810;8.342;2022-09-01T09:27:45;1.40;;;1.30;;
5805;SDS011;2929;50.810;8.342;2022-09-01T09:30:14;6.20;;;1.47;;
5805;SDS011;2929;50.810;8.342;2022-09-01T09:32:47;1.30;;;1.17;;
5805;SDS011;2929;50.810;8.342;2022-09-01T09:35:18;2.67;;;1.40;;
5805;SDS011;2929;50.810;8.342;2022-09-01T09:37:51;2.80;;;1.53;;
5805;SDS011;2929;50.810;8.342;2022-09-01T09:40:19;2.13;;;1.20;;
5805;SDS011;2929;50.810;8.342;2022-09-01T09:43:00;2.33;;;1.40;;
5805;SDS011;2929;50.810;8.342;2022-09-01T09:45:32;1.73;;;1.63;;
5805;SDS011;2929;50.810;8.342;2022-09-01T09:48:06;4.00;;;1.23;;
5805;SDS011;2929;50.810;8.342;2022-09-01T09:50:36;4.50;;;1.50;;
5805;SDS011;2929;50.810;8.342;2022-09-01T09:53:11;3.10;;;1.57;;
5805;SDS011;2929;50.810;8.342;2022-09-01T09:55:54;6.17;;;1.50;;
5805;SDS011;2929;50.810;8.342;2022-09-01T09:58:26;2.17;;;1.80;;
5805;SDS011;2929;50.810;8.342;2022-09-01T10:01:02;1.90;;;1.20;;
5805;SDS011;2929;50.810;8.342;2022-09-01T10:03:33;4.53;;;1.30;;
5805;SDS011;2929;50.810;8.342;2022-09-01T10:06:08;2.60;;;1.20;;
5805;SDS011;2929;50.810;8.342;2022-09-01T10:08:38;1.63;;;1.40;;
5805;SDS011;2929;50.810;8.342;2022-09-01T10:11:10;2.77;;;1.40;;
5805;SDS011;2929;50.810;8.342;2022-09-01T10:13:52;2.97;;;1.40;;
5805;SDS011;2929;50.810;8.342;2022-09-01T10:16:22;1.67;;;1.40;;
5805;SDS011;2929;50.810;8.342;2022-09-01T10:18:52;1.73;;;1.43;;
5805;SDS011;2929;50.810;8.342;2022-09-01T10:21:25;1.87;;;1.77;;
5805;SDS011;2929;50.810;8.342;2022-09-01T10:23:58;1.30;;;1.20;;
5805;SDS011;2929;50.810;8.342;2022-09-01T10:26:27;3.30;;;1.43;;
5805;SDS011;2929;50.810;8.342;2022-09-01T10:28:59;3.60;;;1.43;;
5805;SDS011;2929;50.810;8.342;2022-09-01T10:31:32;4.30;;;1.23;;
5805;SDS011;2929;50.810;8.342;2022-09-01T10:34:01;2.40;;;1.30;;
5805;SDS011;2929;50.810;8.342;2022-09-01T10:36:30;1.43;;;1.20;;
5805;SDS011;2929;50.810;8.342;2022-09-01T10:38:59;3.20;;;1.47;;
5805;SDS011;2929;50.810;8.342;2022-09-01T10:41:44;2.80;;;1.27;;
5805;SDS011;2929;50.810;8.342;2022-09-01T10:44:19;1.60;;;1.30;;
5805;SDS011;2929;50.810;8.342;2022-09-01T10:46:48;2.87;;;0.97;;
5805;SDS011;2929;50.810;8.342;2022-09-01T10:49:21;2.90;;;1.20;;
5805;SDS011;2929;50.810;8.342;2022-09-01T10:52:23;4.90;;;1.40;;
5805;SDS011;2929;50.810;8.342;2022-09-01T10:55:41;3.10;;;1.70;;
5805;SDS011;2929;50.810;8.342;2022-09-01T10:58:26;1.50;;;1.40;;
5805;SDS011;2929;50.810;8.342;2022-09-01T11:01:11;2.30;;;1.50;;
5805;SDS011;2929;50.810;8.342;2022-09-01T11:09:22;2.00;;;1.60;;
5805;SDS011;2929;50.810;8.342;2022-09-01T11:12:07;4.30;;;1.20;;
5805;SDS011;2929;50.810;8.342;2022-09-01T11:15:01;1.57;;;1.47;;
5805;SDS011;2929;50.810;8.342;2022-09-01T11:17:31;7.03;;;1.90;;
5805;SDS011;2929;50.810;8.342;2022-09-01T11:20:03;2.60;;;1.50;;
5805;SDS011;2929;50.810;8.342;2022-09-01T11:22:37;2.00;;;1.40;;
5805;SDS011;2929;50.810;8.342;2022-09-01T11:25:11;2.10;;;1.50;;
5805;SDS011;2929;50.810;8.342;2022-09-01T11:27:59;2.30;;;1.30;;
5805;SDS011;2929;50.810;8.342;2022-09-01T11:30:32;2.00;;;1.23;;
5805;SDS011;2929;50.810;8.342;2022-09-01T11:33:25;1.50;;;1.40;;
5805;SDS011;2929;50.810;8.342;2022-09-01T11:35:59;1.57;;;1.30;;
5805;SDS011;2929;50.810;8.342;2022-09-01T11:38:28;2.97;;;1.27;;
5805;SDS011;2929;50.810;8.342;2022-09-01T11:41:03;3.70;;;1.50;;
5805;SDS011;2929;50.810;8.342;2022-09-01T11:43:31;1.40;;;1.30;;
5805;SDS011;2929;50.810;8.342;2022-09-01T11:46:01;2.00;;;1.60;;
5805;SDS011;2929;50.810;8.342;2022-09-01T11:48:37;4.10;;;1.70;;
5805;SDS011;2929;50.810;8.342;2022-09-01T11:51:04;2.40;;;1.50;;
5805;SDS011;2929;50.810;8.342;2022-09-01T11:53:32;2.00;;;1.30;;
5805;SDS011;2929;50.810;8.342;2022-09-01T11:56:10;3.50;;;1.50;;
5805;SDS011;2929;50.810;8.342;2022-09-01T11:58:40;1.40;;;1.30;;
5805;SDS011;2929;50.810;8.342;2022-09-01T12:01:11;1.70;;;1.27;;
5805;SDS011;2929;50.810;8.342;2022-09-01T12:03:43;5.07;;;1.57;;
5805;SDS011;2929;50.810;8.342;2022-09-01T12:06:17;3.10;;;1.17;;
5805;SDS011;2929;50.810;8.342;2022-09-01T12:08:50;1.40;;;1.30;;
5805;SDS011;2929;50.810;8.342;2022-09-01T12:11:20;2.70;;;1.40;;
5805;SDS011;2929;50.810;8.342;2022-09-01T12:13:56;1.47;;;1.33;;
5805;SDS011;2929;50.810;8.342;2022-09-01T12:16:25;1.60;;;1.50;;
5805;SDS011;2929;50.810;8.342;2022-09-01T12:18:55;1.57;;;1.47;;
5805;SDS011;2929;50.810;8.342;2022-09-01T12:21:25;2.13;;;1.50;;
5805;SDS011;2929;50.810;8.342;2022-09-01T12:23:53;3.50;;;1.73;;
5805;SDS011;2929;50.810;8.342;2022-09-01T12:26:37;1.70;;;1.53;;
5805;SDS011;2929;50.810;8.342;2022-09-01T12:29:05;1.73;;;1.63;;
5805;SDS011;2929;50.810;8.342;2022-09-01T12:31:34;2.30;;;1.47;;
5805;SDS011;2929;50.810;8.342;2022-09-01T12:34:03;1.30;;;1.20;;
5805;SDS011;2929;50.810;8.342;2022-09-01T12:36:31;1.57;;;1.47;;
5805;SDS011;2929;50.810;8.342;2022-09-01T12:41:46;3.80;;;1.50;;
5805;SDS011;2929;50.810;8.342;2022-09-01T12:44:27;1.90;;;1.80;;
5805;SDS011;2929;50.810;8.342;2022-09-01T12:46:56;1.73;;;1.40;;
5805;SDS011;2929;50.810;8.342;2022-09-01T12:49:33;2.67;;;1.50;;
5805;SDS011;2929;50.810;8.342;2022-09-01T12:52:16;1.30;;;1.20;;
5805;SDS011;2929;50.810;8.342;2022-09-01T12:54:50;1.10;;;1.10;;
5805;SDS011;2929;50.810;8.342;2022-09-01T12:57:23;2.07;;;1.13;;
5805;SDS011;2929;50.810;8.342;2022-09-01T13:00:07;4.17;;;1.30;;
5805;SDS011;2929;50.810;8.342;2022-09-01T13:02:40;1.73;;;1.63;;
5805;SDS011;2929;50.810;8.342;2022-09-01T13:07:58;1.77;;;1.33;;
5805;SDS011;2929;50.810;8.342;2022-09-01T13:10:29;2.10;;;1.33;;
5805;SDS011;2929;50.810;8.342;2022-09-01T13:12:58;3.40;;;1.70;;
5805;SDS011;2929;50.810;8.342;2022-09-01T13:15:26;2.97;;;1.47;;
5805;SDS011;2929;50.810;8.342;2022-09-01T13:17:53;7.20;;;2.13;;
5805;SDS011;2929;50.810;8.342;2022-09-01T13:20:20;2.83;;;1.37;;
5805;SDS011;2929;50.810;8.342;2022-09-01T13:22:48;1.50;;;1.20;;
5805;SDS011;2929;50.810;8.342;2022-09-01T13:25:17;2.47;;;1.57;;
5805;SDS011;2929;50.810;8.342;2022-09-01T13:27:45;3.33;;;1.70;;
5805;SDS011;2929;50.810;8.342;2022-09-01T13:30:13;2.53;;;1.13;;
5805;SDS011;2929;50.810;8.342;2022-09-01T13:32:41;1.47;;;1.20;;
5805;SDS011;2929;50.810;8.342;2022-09-01T13:35:09;3.50;;;1.67;;
5805;SDS011;2929;50.810;8.342;2022-09-01T13:37:37;1.17;;;1.17;;
5805;SDS011;2929;50.810;8.342;2022-09-01T13:40:06;3.37;;;1.73;;
5805;SDS011;2929;50.810;8.342;2022-09-01T13:42:38;1.10;;;1.10;;
5805;SDS011;2929;50.810;8.342;2022-09-01T13:45:06;1.80;;;1.40;;
5805;SDS011;2929;50.810;8.342;2022-09-01T13:47:33;1.50;;;1.10;;
5805;SDS011;2929;50.810;8.342;2022-09-01T13:50:00;1.20;;;1.10;;
5805;SDS011;2929;50.810;8.342;2022-09-01T13:52:27;1.50;;;1.40;;
5805;SDS011;2929;50.810;8.342;2022-09-01T13:54:54;2.50;;;1.10;;
5805;SDS011;2929;50.810;8.342;2022-09-01T13:57:23;6.17;;;1.10;;
5805;SDS011;2929;50.810;8.342;2022-09-01T13:59:51;9.50;;;1.40;;
5805;SDS011;2929;50.810;8.342;2022-09-01T14:02:19;1.57;;;1.10;;
5805;SDS011;2929;50.810;8.342;2022-09-01T14:04:46;1.67;;;1.27;;
5805;SDS011;2929;50.810;8.342;2022-09-01T14:07:13;1.63;;;1.30;;
5805;SDS011;2929;50.810;8.342;2022-09-01T14:09:43;3.70;;;1.23;;
5805;SDS011;2929;50.810;8.342;2022-09-01T14:12:10;6.93;;;1.37;;
5805;SDS011;2929;50.810;8.342;2022-09-01T14:14:39;2.80;;;1.10;;
5805;SDS011;2929;50.810;8.342;2022-09-01T14:17:06;3.10;;;1.30;;
5805;SDS011;2929;50.810;8.342;2022-09-01T14:19:33;2.10;;;1.87;;
5805;SDS011;2929;50.810;8.342;2022-09-01T14:22:01;2.30;;;1.20;;
5805;SDS011;2929;50.810;8.342;2022-09-01T14:24:30;2.30;;;1.33;;
5805;SDS011;2929;50.810;8.342;2022-09-01T14:27:00;2.90;;;1.20;;
5805;SDS011;2929;50.810;8.342;2022-09-01T14:29:27;2.03;;;1.00;;
5805;SDS011;2929;50.810;8.342;2022-09-01T14:31:55;3.10;;;1.30;;
5805;SDS011;2929;50.810;8.342;2022-09-01T14:34:22;1.10;;;1.10;;
5805;SDS011;2929;50.810;8.342;2022-09-01T14:36:50;1.50;;;1.40;;
5805;SDS011;2929;50.810;8.342;2022-09-01T14:39:22;1.43;;;1.10;;
5805;SDS011;2929;50.810;8.342;2022-09-01T14:41:49;2.77;;;1.30;;
5805;SDS011;2929;50.810;8.342;2022-09-01T14:44:16;3.33;;;2.00;;
5805;SDS011;2929;50.810;8.342;2022-09-01T14:46:43;2.30;;;1.20;;
5805;SDS011;2929;50.810;8.342;2022-09-01T14:49:12;1.27;;;1.20;;
5805;SDS011;2929;50.810;8.342;2022-09-01T14:51:41;4.60;;;1.40;;
5805;SDS011;2929;50.810;8.342;2022-09-01T14:54:08;4.80;;;1.40;;
5805;SDS011;2929;50.810;8.342;2022-09-01T14:56:46;2.40;;;1.40;;
5805;SDS011;2929;50.810;8.342;2022-09-01T14:59:15;5.50;;;1.40;;
5805;SDS011;2929;50.810;8.342;2022-09-01T15:01:43;3.10;;;1.33;;
5805;SDS011;2929;50.810;8.342;2022-09-01T15:04:12;3.47;;;1.80;;
5805;SDS011;2929;50.810;8.342;2022-09-01T15:06:39;1.77;;;1.50;;
5805;SDS011;2929;50.810;8.342;2022-09-01T15:09:06;2.60;;;1.30;;
5805;SDS011;2929;50.810;8.342;2022-09-01T15:11:33;3.67;;;1.50;;
5805;SDS011;2929;50.810;8.342;2022-09-01T15:14:00;1.63;;;1.10;;
5805;SDS011;2929;50.810;8.342;2022-09-01T15:16:27;2.10;;;1.50;;
5805;SDS011;2929;50.810;8.342;2022-09-01T15:18:55;1.70;;;1.43;;
5805;SDS011;2929;50.810;8.342;2022-09-01T15:21:25;1.90;;;1.33;;
5805;SDS011;2929;50.810;8.342;2022-09-01T15:23:57;2.50;;;1.50;;
5805;SDS011;2929;50.810;8.342;2022-09-01T15:26:25;4.40;;;1.33;;
5805;SDS011;2929;50.810;8.342;2022-09-01T15:28:53;1.50;;;1.40;;
5805;SDS011;2929;50.810;8.342;2022-09-01T15:31:21;2.10;;;1.23;;
5805;SDS011;2929;50.810;8.342;2022-09-01T15:33:53;1.20;;;1.10;;
5805;SDS011;2929;50.810;8.342;2022-09-01T15:36:22;1.93;;;1.73;;
5805;SDS011;2929;50.810;8.342;2022-09-01T15:38:54;5.67;;;1.20;;
5805;SDS011;2929;50.810;8.342;2022-09-01T15:41:22;2.17;;;1.20;;
5805;SDS011;2929;50.810;8.342;2022-09-01T15:43:50;5.00;;;1.30;;
5805;SDS011;2929;50.810;8.342;2022-09-01T15:46:18;1.60;;;1.20;;
5805;SDS011;2929;50.810;8.342;2022-09-01T15:48:47;1.40;;;1.30;;
5805;SDS011;2929;50.810;8.342;2022-09-01T15:51:26;2.07;;;1.40;;
5805;SDS011;2929;50.810;8.342;2022-09-01T15:53:57;1.53;;;1.20;;